Ashford, West Virginia
Current Conditions -  °F | °C
As of 5:54 AM on Friday 24 Oct 2014 (Local Time) from KCRW Reporting Station
Moderate Fog Moderate Fog  
Wind Chill: 42°   Ceiling: 100
Heat Index: 42°   Visibility: 0.5mi
Dew Point: 41°   Wind: 0mph
Humidity: 96%   Direction: NA
Pressure: 30.12"   Gusts: NA
Location:  38.18°N, 81.71°W
Report Text: KCRW 240954Z 00000KT 1/2SM FG BKN001 06/05 A3012 RMK AO2 SLP201 T00560050 RVRNO
Loading
Personal Weather Stations






























Interactive Weather Map New forecast layout! Learn more

10-Day Weather Forecast

Advertisements
Track Severe Weather on mobile